EJA110 KOKC-KMAF
Flight info
| Callsign | EJA110 |
|---|---|
| Flight time | N/A |
| Altitude | 43000 |
| Route | THRPE3 FLECH |
| Aircraft | C700/M-SBDGHM1RWXY/LB2 |
Departure
| Time | N/A |
|---|---|
| Airport | OKC Will Rogers World Airport (KOKC) |
Arrival
| Time | 2026-04-10 23:22 |
|---|---|
| Airport | Midland International Air and Space Port (KMAF) |
| Time | Latitude | Longitude | Altitude | Speed | Heading |
|---|---|---|---|---|---|
| 2026-04-10 22:43 | 33.83250 | -99.27838 | 23848 ft | 375 kts | 235° |
| 2026-04-10 22:43 | 33.81701 | -99.30349 | 24557 ft | 380 kts | 236° |
| 2026-04-10 22:43 | 33.80124 | -99.32914 | 25388 ft | 382 kts | 236° |
| 2026-04-10 22:43 | 33.78520 | -99.35490 | 26117 ft | 387 kts | 236° |
| 2026-04-10 22:44 | 33.76889 | -99.38091 | 26845 ft | 390 kts | 236° |
| 2026-04-10 22:44 | 33.75253 | -99.40714 | 27560 ft | 394 kts | 236° |
| 2026-04-10 22:44 | 33.73620 | -99.43341 | 28270 ft | 397 kts | 236° |
| 2026-04-10 22:44 | 33.71955 | -99.46011 | 28989 ft | 401 kts | 236° |
| 2026-04-10 22:45 | 33.70274 | -99.48699 | 29750 ft | 403 kts | 236° |
| 2026-04-10 22:45 | 33.68577 | -99.51412 | 30414 ft | 407 kts | 236° |
| 2026-04-10 22:45 | 33.66885 | -99.54118 | 31003 ft | 410 kts | 236° |
| 2026-04-10 22:45 | 33.65165 | -99.56869 | 31571 ft | 413 kts | 236° |
| 2026-04-10 22:46 | 33.63425 | -99.59644 | 32120 ft | 416 kts | 236° |
| 2026-04-10 22:46 | 33.61675 | -99.62435 | 32675 ft | 419 kts | 236° |
| 2026-04-10 22:46 | 33.59913 | -99.65243 | 33203 ft | 422 kts | 236° |
| 2026-04-10 22:46 | 33.58140 | -99.68066 | 33912 ft | 420 kts | 236° |
| 2026-04-10 22:47 | 33.56403 | -99.70828 | 34529 ft | 418 kts | 236° |
| 2026-04-10 22:47 | 33.54656 | -99.73608 | 35102 ft | 416 kts | 236° |
| 2026-04-10 22:47 | 33.52916 | -99.76373 | 35691 ft | 414 kts | 236° |
| 2026-04-10 22:47 | 33.51187 | -99.79118 | 36230 ft | 412 kts | 236° |
| 2026-04-10 22:48 | 33.49465 | -99.81851 | 36722 ft | 410 kts | 236° |
| 2026-04-10 22:48 | 33.47746 | -99.84576 | 37209 ft | 407 kts | 236° |
| 2026-04-10 22:48 | 33.46065 | -99.87238 | 37695 ft | 405 kts | 236° |
| 2026-04-10 22:48 | 33.44361 | -99.89936 | 38102 ft | 403 kts | 236° |
| 2026-04-10 22:49 | 33.42667 | -99.92617 | 38486 ft | 402 kts | 236° |
| 2026-04-10 22:49 | 33.40979 | -99.95284 | 38830 ft | 401 kts | 236° |
| 2026-04-10 22:49 | 33.39292 | -99.97950 | 39099 ft | 400 kts | 236° |
| 2026-04-10 22:49 | 33.37633 | -100.00568 | 39351 ft | 399 kts | 236° |
| 2026-04-10 22:50 | 33.35959 | -100.03209 | 39612 ft | 398 kts | 236° |
| 2026-04-10 22:50 | 33.34283 | -100.05850 | 39867 ft | 397 kts | 236° |
| 2026-04-10 22:50 | 33.32612 | -100.08482 | 40134 ft | 395 kts | 236° |
| 2026-04-10 22:50 | 33.30965 | -100.11075 | 40365 ft | 395 kts | 236° |
| 2026-04-10 22:51 | 33.29303 | -100.13688 | 40584 ft | 394 kts | 236° |
| 2026-04-10 22:51 | 33.27647 | -100.16291 | 40825 ft | 393 kts | 236° |
| 2026-04-10 22:51 | 33.25988 | -100.18898 | 41076 ft | 390 kts | 236° |
| 2026-04-10 22:51 | 33.24356 | -100.21458 | 41375 ft | 387 kts | 236° |
| 2026-04-10 22:52 | 33.22753 | -100.23971 | 41600 ft | 386 kts | 236° |
| 2026-04-10 22:52 | 33.21122 | -100.26530 | 41805 ft | 386 kts | 236° |
| 2026-04-10 22:52 | 33.19491 | -100.29085 | 41997 ft | 385 kts | 236° |
| 2026-04-10 22:52 | 33.17864 | -100.31631 | 42198 ft | 385 kts | 236° |
| 2026-04-10 22:53 | 33.16240 | -100.34171 | 42375 ft | 384 kts | 236° |
| 2026-04-10 22:53 | 33.14635 | -100.36680 | 42559 ft | 384 kts | 236° |
| 2026-04-10 22:53 | 33.13011 | -100.39216 | 42751 ft | 383 kts | 236° |
| 2026-04-10 22:53 | 33.11387 | -100.41751 | 42918 ft | 383 kts | 236° |
| 2026-04-10 22:54 | 33.09788 | -100.44245 | 43060 ft | 383 kts | 236° |
| 2026-04-10 22:54 | 33.06517 | -100.49344 | 43060 ft | 390 kts | 236° |
| 2026-04-10 22:55 | 33.03178 | -100.54540 | 43059 ft | 396 kts | 236° |
| 2026-04-10 22:55 | 32.99817 | -100.59763 | 43055 ft | 402 kts | 236° |
| 2026-04-10 22:56 | 32.96368 | -100.65115 | 43054 ft | 408 kts | 236° |
| 2026-04-10 22:56 | 32.92897 | -100.70493 | 43067 ft | 414 kts | 236° |
| 2026-04-10 22:57 | 32.89355 | -100.75972 | 43082 ft | 419 kts | 236° |
| 2026-04-10 22:57 | 32.85791 | -100.81479 | 43109 ft | 424 kts | 235° |
| 2026-04-10 22:58 | 32.82155 | -100.87086 | 43123 ft | 429 kts | 235° |
| 2026-04-10 22:58 | 32.78512 | -100.92699 | 43143 ft | 431 kts | 235° |
| 2026-04-10 22:59 | 32.74854 | -100.98322 | 43140 ft | 427 kts | 235° |
| 2026-04-10 22:59 | 32.71243 | -101.03868 | 43137 ft | 424 kts | 235° |
| 2026-04-10 23:00 | 32.67619 | -101.09425 | 43123 ft | 421 kts | 235° |
| 2026-04-10 23:00 | 32.65859 | -101.12114 | 42981 ft | 404 kts | 235° |
| 2026-04-10 23:00 | 32.64161 | -101.14714 | 42144 ft | 404 kts | 235° |
| 2026-04-10 23:00 | 32.62434 | -101.17365 | 41209 ft | 406 kts | 235° |
| 2026-04-10 23:01 | 32.60690 | -101.20032 | 40304 ft | 408 kts | 235° |
| 2026-04-10 23:01 | 32.58938 | -101.22704 | 39391 ft | 411 kts | 235° |
| 2026-04-10 23:01 | 32.57174 | -101.25395 | 38399 ft | 413 kts | 235° |
| 2026-04-10 23:01 | 32.55425 | -101.28065 | 37257 ft | 417 kts | 235° |
| 2026-04-10 23:02 | 32.53632 | -101.30798 | 36092 ft | 421 kts | 235° |
| 2026-04-10 23:02 | 32.51821 | -101.33555 | 34990 ft | 423 kts | 234° |
| 2026-04-10 23:02 | 32.50002 | -101.36322 | 33772 ft | 427 kts | 234° |
| 2026-04-10 23:02 | 32.48164 | -101.39119 | 32362 ft | 432 kts | 234° |
| 2026-04-10 23:03 | 32.46322 | -101.41918 | 30925 ft | 438 kts | 233° |
| 2026-04-10 23:03 | 32.44432 | -101.44787 | 29325 ft | 445 kts | 233° |
| 2026-04-10 23:03 | 32.42533 | -101.47665 | 28378 ft | 436 kts | 233° |
| 2026-04-10 23:03 | 32.40679 | -101.50475 | 27267 ft | 430 kts | 233° |
| 2026-04-10 23:04 | 32.38867 | -101.53223 | 26208 ft | 426 kts | 233° |
| 2026-04-10 23:04 | 32.37045 | -101.55982 | 25196 ft | 421 kts | 233° |
| 2026-04-10 23:04 | 32.35247 | -101.58702 | 24212 ft | 417 kts | 233° |
| 2026-04-10 23:04 | 32.33470 | -101.61386 | 23276 ft | 412 kts | 233° |
| 2026-04-10 23:05 | 32.31732 | -101.64011 | 22251 ft | 407 kts | 233° |
| 2026-04-10 23:05 | 32.30000 | -101.66627 | 21266 ft | 401 kts | 233° |
| 2026-04-10 23:05 | 32.28283 | -101.69219 | 20307 ft | 397 kts | 233° |
| 2026-04-10 23:05 | 32.26592 | -101.71770 | 19407 ft | 390 kts | 232° |
| 2026-04-10 23:06 | 32.24918 | -101.74288 | 18432 ft | 389 kts | 233° |
| 2026-04-10 23:06 | 32.23252 | -101.76794 | 17432 ft | 384 kts | 232° |
| 2026-04-10 23:06 | 32.21605 | -101.79275 | 16400 ft | 382 kts | 232° |
| 2026-04-10 23:06 | 32.19968 | -101.81737 | 15962 ft | 380 kts | 232° |
| 2026-04-10 23:07 | 32.18303 | -101.84237 | 15952 ft | 404 kts | 232° |
| 2026-04-10 23:07 | 32.16563 | -101.86850 | 15953 ft | 403 kts | 232° |
| 2026-04-10 23:07 | 32.14828 | -101.89453 | 15966 ft | 406 kts | 232° |
| 2026-04-10 23:07 | 32.13071 | -101.92087 | 15973 ft | 406 kts | 232° |
| 2026-04-10 23:08 | 32.11322 | -101.94708 | 15981 ft | 405 kts | 232° |
| 2026-04-10 23:08 | 32.09599 | -101.97290 | 15991 ft | 404 kts | 232° |
| 2026-04-10 23:08 | 32.07869 | -101.99918 | 15996 ft | 405 kts | 234° |
| 2026-04-10 23:08 | 32.06545 | -102.02855 | 15989 ft | 405 kts | 249° |
| 2026-04-10 23:09 | 32.05822 | -102.06061 | 15987 ft | 404 kts | 261° |
| 2026-04-10 23:09 | 32.05732 | -102.09368 | 15991 ft | 406 kts | 274° |
| 2026-04-10 23:09 | 32.07333 | -102.15327 | 15468 ft | 372 kts | 306° |
| 2026-04-10 23:10 | 32.09085 | -102.17427 | 15354 ft | 346 kts | 310° |
| 2026-04-10 23:10 | 32.10139 | -102.19824 | 15291 ft | 322 kts | 282° |
| 2026-04-10 23:10 | 32.10178 | -102.22400 | 14923 ft | 311 kts | 266° |
| 2026-04-10 23:10 | 32.10507 | -102.24924 | 14283 ft | 314 kts | 290° |
| 2026-04-10 23:11 | 32.11441 | -102.27246 | 13783 ft | 312 kts | 298° |
| 2026-04-10 23:11 | 32.12501 | -102.29484 | 13213 ft | 311 kts | 300° |
| 2026-04-10 23:11 | 32.13580 | -102.31691 | 12679 ft | 309 kts | 301° |
| 2026-04-10 23:11 | 32.14653 | -102.33882 | 12184 ft | 306 kts | 301° |
| 2026-04-10 23:12 | 32.16043 | -102.35711 | 11617 ft | 303 kts | 325° |
| 2026-04-10 23:12 | 32.17851 | -102.36965 | 11147 ft | 299 kts | 335° |
| 2026-04-10 23:12 | 32.19722 | -102.38042 | 10645 ft | 297 kts | 336° |
| 2026-04-10 23:12 | 32.21580 | -102.39079 | 10176 ft | 294 kts | 336° |
| 2026-04-10 23:13 | 32.23486 | -102.39807 | 9634 ft | 290 kts | 358° |
| 2026-04-10 23:13 | 32.25407 | -102.39312 | 9107 ft | 280 kts | 32° |
| 2026-04-10 23:13 | 32.26633 | -102.37727 | 9040 ft | 251 kts | 67° |
| 2026-04-10 23:13 | 32.26903 | -102.35799 | 9032 ft | 228 kts | 88° |
| 2026-04-10 23:14 | 32.26796 | -102.33967 | 8722 ft | 222 kts | 102° |
| 2026-04-10 23:14 | 32.26305 | -102.32252 | 8402 ft | 219 kts | 116° |
| 2026-04-10 23:14 | 32.25428 | -102.30772 | 7954 ft | 223 kts | 134° |
| 2026-04-10 23:14 | 32.24233 | -102.29682 | 7709 ft | 217 kts | 147° |
| 2026-04-10 23:15 | 32.23008 | -102.28705 | 7451 ft | 210 kts | 143° |
| 2026-04-10 23:15 | 32.21864 | -102.27629 | 7089 ft | 209 kts | 140° |
| 2026-04-10 23:15 | 32.20755 | -102.26510 | 6735 ft | 209 kts | 140° |
| 2026-04-10 23:15 | 32.19641 | -102.25401 | 6393 ft | 209 kts | 141° |
| 2026-04-10 23:16 | 32.18545 | -102.24322 | 6142 ft | 204 kts | 141° |
| 2026-04-10 23:16 | 32.17424 | -102.23310 | 5694 ft | 208 kts | 150° |
| 2026-04-10 23:16 | 32.16083 | -102.22683 | 5456 ft | 202 kts | 165° |
| 2026-04-10 23:16 | 32.14696 | -102.22458 | 5115 ft | 203 kts | 174° |
| 2026-04-10 23:17 | 32.13304 | -102.22329 | 4775 ft | 202 kts | 173° |
| 2026-04-10 23:17 | 32.11943 | -102.22187 | 4571 ft | 186 kts | 173° |
| 2026-04-10 23:17 | 32.10736 | -102.22063 | 4552 ft | 163 kts | 173° |
| 2026-04-10 23:17 | 32.09645 | -102.21952 | 4539 ft | 153 kts | 172° |
| 2026-04-10 23:18 | 32.08602 | -102.21841 | 4557 ft | 152 kts | 173° |
| 2026-04-10 23:18 | 32.07526 | -102.21732 | 4577 ft | 158 kts | 172° |
| 2026-04-10 23:18 | 32.06412 | -102.21618 | 4594 ft | 164 kts | 173° |
| 2026-04-10 23:18 | 32.05283 | -102.21504 | 4575 ft | 159 kts | 173° |
| 2026-04-10 23:19 | 32.04135 | -102.21384 | 4488 ft | 169 kts | 173° |
| 2026-04-10 23:19 | 32.03082 | -102.21282 | 4319 ft | 148 kts | 172° |
| 2026-04-10 23:19 | 32.02078 | -102.21177 | 4093 ft | 143 kts | 175° |
| 2026-04-10 23:19 | 32.01093 | -102.21079 | 3917 ft | 136 kts | 172° |
| 2026-04-10 23:20 | 32.00161 | -102.20984 | 3727 ft | 136 kts | 173° |
| 2026-04-10 23:20 | 31.99198 | -102.20883 | 3577 ft | 139 kts | 174° |
| 2026-04-10 23:20 | 31.98245 | -102.20789 | 3375 ft | 137 kts | 173° |
| 2026-04-10 23:20 | 31.97335 | -102.20696 | 3164 ft | 129 kts | 170° |
| 2026-04-10 23:21 | 31.96469 | -102.20605 | 3000 ft | 121 kts | 171° |
| 2026-04-10 23:21 | 31.95650 | -102.20520 | 2893 ft | 114 kts | 171° |
| 2026-04-10 23:21 | 31.94964 | -102.20445 | 2864 ft | 80 kts | 175° |
| 2026-04-10 23:21 | 31.94523 | -102.20403 | 2858 ft | 51 kts | 173° |
| 2026-04-10 23:22 | 31.94326 | -102.20400 | 2861 ft | 10 kts | 225° |
| 2026-04-10 23:22 | 31.94336 | -102.20502 | 2856 ft | 16 kts | 283° |
| 2026-04-10 23:22 | 31.94268 | -102.20586 | 2858 ft | 15 kts | 224° |
| 2026-04-10 23:22 | 31.94275 | -102.20700 | 2857 ft | 15 kts | 292° |
| 2026-04-10 23:23 | 31.94321 | -102.20832 | 2856 ft | 20 kts | 292° |
| 2026-04-10 23:23 | 31.94376 | -102.20967 | 2858 ft | 4 kts | 297° |
| 2026-04-10 23:23 | 31.94373 | -102.21001 | 2858 ft | 5 kts | 232° |
| 2026-04-10 23:23 | 31.94321 | -102.21029 | 2858 ft | 9 kts | 219° |
| 2026-04-10 23:24 | 31.94342 | -102.21104 | 2859 ft | 12 kts | 300° |
| 2026-04-10 23:24 | 31.94381 | -102.21210 | 2862 ft | 14 kts | 268° |
| 2026-04-10 23:24 | 31.94336 | -102.21200 | 2862 ft | 10 kts | 117° |
| 2026-04-10 23:24 | 31.94332 | -102.21181 | 2862 ft | 3 kts | 77° |
| 2026-04-10 23:25 | 31.94344 | -102.21162 | 2856 ft | 0 kts | 27° |